sensor_id;sensor_type;location;lat;lon;timestamp;temperature;humidity
75615;DHT22;64199;48.578;-4.520;2024-03-17T00:01:02;21.20;59.70
75615;DHT22;64199;48.578;-4.520;2024-03-17T00:03:30;21.30;59.90
75615;DHT22;64199;48.578;-4.520;2024-03-17T00:05:59;21.30;59.90
75615;DHT22;64199;48.578;-4.520;2024-03-17T00:08:25;21.40;59.90
75615;DHT22;64199;48.578;-4.520;2024-03-17T00:10:52;21.40;59.80
75615;DHT22;64199;48.578;-4.520;2024-03-17T00:13:18;21.50;59.80
75615;DHT22;64199;48.578;-4.520;2024-03-17T00:15:44;21.50;59.80
75615;DHT22;64199;48.578;-4.520;2024-03-17T00:18:10;21.60;59.80
75615;DHT22;64199;48.578;-4.520;2024-03-17T00:20:37;21.60;59.80
75615;DHT22;64199;48.578;-4.520;2024-03-17T00:23:04;21.60;59.80
75615;DHT22;64199;48.578;-4.520;2024-03-17T00:25:32;21.70;59.80
75615;DHT22;64199;48.578;-4.520;2024-03-17T00:28:00;21.70;59.80
75615;DHT22;64199;48.578;-4.520;2024-03-17T00:30:26;21.70;59.80
75615;DHT22;64199;48.578;-4.520;2024-03-17T00:32:52;21.80;59.90
75615;DHT22;64199;48.578;-4.520;2024-03-17T00:35:17;21.80;59.80
75615;DHT22;64199;48.578;-4.520;2024-03-17T00:37:50;21.90;59.80
75615;DHT22;64199;48.578;-4.520;2024-03-17T00:40:20;21.90;59.90
75615;DHT22;64199;48.578;-4.520;2024-03-17T00:42:46;21.90;59.80
75615;DHT22;64199;48.578;-4.520;2024-03-17T00:45:12;21.90;59.70
75615;DHT22;64199;48.578;-4.520;2024-03-17T00:47:38;22.00;59.70
75615;DHT22;64199;48.578;-4.520;2024-03-17T00:50:05;22.10;59.60
75615;DHT22;64199;48.578;-4.520;2024-03-17T00:52:34;22.00;59.40
75615;DHT22;64199;48.578;-4.520;2024-03-17T00:55:00;22.10;59.30
75615;DHT22;64199;48.578;-4.520;2024-03-17T00:57:26;22.10;59.20
75615;DHT22;64199;48.578;-4.520;2024-03-17T00:59:52;22.20;59.10
75615;DHT22;64199;48.578;-4.520;2024-03-17T01:02:18;22.20;59.10
75615;DHT22;64199;48.578;-4.520;2024-03-17T01:04:45;22.20;59.20
75615;DHT22;64199;48.578;-4.520;2024-03-17T01:07:11;22.20;59.10
75615;DHT22;64199;48.578;-4.520;2024-03-17T01:09:38;22.30;59.10
75615;DHT22;64199;48.578;-4.520;2024-03-17T01:12:04;22.30;59.00
75615;DHT22;64199;48.578;-4.520;2024-03-17T01:14:31;22.30;58.90
75615;DHT22;64199;48.578;-4.520;2024-03-17T01:16:58;22.40;58.90
75615;DHT22;64199;48.578;-4.520;2024-03-17T01:19:24;22.40;58.90
75615;DHT22;64199;48.578;-4.520;2024-03-17T01:21:51;22.40;58.90
75615;DHT22;64199;48.578;-4.520;2024-03-17T01:24:17;22.40;58.90
75615;DHT22;64199;48.578;-4.520;2024-03-17T01:26:44;22.50;59.00
75615;DHT22;64199;48.578;-4.520;2024-03-17T01:29:10;22.50;59.00
75615;DHT22;64199;48.578;-4.520;2024-03-17T01:31:36;22.60;59.00
75615;DHT22;64199;48.578;-4.520;2024-03-17T01:34:02;22.60;59.00
75615;DHT22;64199;48.578;-4.520;2024-03-17T01:36:28;22.60;58.80
75615;DHT22;64199;48.578;-4.520;2024-03-17T01:38:54;22.60;58.60
75615;DHT22;64199;48.578;-4.520;2024-03-17T01:41:20;22.70;58.50
75615;DHT22;64199;48.578;-4.520;2024-03-17T01:43:46;22.60;58.30
75615;DHT22;64199;48.578;-4.520;2024-03-17T01:46:15;22.60;58.30
75615;DHT22;64199;48.578;-4.520;2024-03-17T01:48:44;22.60;58.90
75615;DHT22;64199;48.578;-4.520;2024-03-17T01:51:13;22.60;58.20
75615;DHT22;64199;48.578;-4.520;2024-03-17T01:53:39;22.60;58.20
75615;DHT22;64199;48.578;-4.520;2024-03-17T01:56:05;22.60;58.10
75615;DHT22;64199;48.578;-4.520;2024-03-17T01:58:34;22.60;58.00
75615;DHT22;64199;48.578;-4.520;2024-03-17T02:01:01;22.60;58.00
75615;DHT22;64199;48.578;-4.520;2024-03-17T02:03:27;22.50;57.90
75615;DHT22;64199;48.578;-4.520;2024-03-17T02:05:53;22.50;57.80
75615;DHT22;64199;48.578;-4.520;2024-03-17T02:08:18;22.50;57.80
75615;DHT22;64199;48.578;-4.520;2024-03-17T02:10:46;22.50;57.70
75615;DHT22;64199;48.578;-4.520;2024-03-17T02:13:17;22.50;57.70
75615;DHT22;64199;48.578;-4.520;2024-03-17T02:15:43;22.50;57.70
75615;DHT22;64199;48.578;-4.520;2024-03-17T02:18:09;22.50;57.70
75615;DHT22;64199;48.578;-4.520;2024-03-17T02:20:36;22.40;57.60
75615;DHT22;64199;48.578;-4.520;2024-03-17T02:23:21;22.40;57.60
75615;DHT22;64199;48.578;-4.520;2024-03-17T02:25:47;22.40;57.60
75615;DHT22;64199;48.578;-4.520;2024-03-17T02:28:14;22.40;57.50
75615;DHT22;64199;48.578;-4.520;2024-03-17T02:30:40;22.40;57.50
75615;DHT22;64199;48.578;-4.520;2024-03-17T02:33:05;22.30;57.30
75615;DHT22;64199;48.578;-4.520;2024-03-17T02:35:31;22.30;57.20
75615;DHT22;64199;48.578;-4.520;2024-03-17T02:37:57;22.30;57.10
75615;DHT22;64199;48.578;-4.520;2024-03-17T02:40:23;22.30;57.10
75615;DHT22;64199;48.578;-4.520;2024-03-17T02:42:49;22.20;57.10
75615;DHT22;64199;48.578;-4.520;2024-03-17T02:45:16;22.20;57.10
75615;DHT22;64199;48.578;-4.520;2024-03-17T02:47:42;22.20;57.10
75615;DHT22;64199;48.578;-4.520;2024-03-17T02:50:08;22.10;57.10
75615;DHT22;64199;48.578;-4.520;2024-03-17T02:52:34;22.20;57.20
75615;DHT22;64199;48.578;-4.520;2024-03-17T02:55:01;22.10;57.20
75615;DHT22;64199;48.578;-4.520;2024-03-17T02:57:27;22.10;57.20
75615;DHT22;64199;48.578;-4.520;2024-03-17T02:59:56;22.10;57.20
75615;DHT22;64199;48.578;-4.520;2024-03-17T03:02:22;22.10;57.20
75615;DHT22;64199;48.578;-4.520;2024-03-17T03:04:48;22.00;57.20
75615;DHT22;64199;48.578;-4.520;2024-03-17T03:07:14;22.00;57.20
75615;DHT22;64199;48.578;-4.520;2024-03-17T03:09:40;22.00;57.30
75615;DHT22;64199;48.578;-4.520;2024-03-17T03:12:06;22.00;57.20
75615;DHT22;64199;48.578;-4.520;2024-03-17T03:14:33;22.00;57.10
75615;DHT22;64199;48.578;-4.520;2024-03-17T03:16:59;21.90;57.10
75615;DHT22;64199;48.578;-4.520;2024-03-17T03:19:29;21.90;57.10
75615;DHT22;64199;48.578;-4.520;2024-03-17T03:21:55;21.90;57.10
75615;DHT22;64199;48.578;-4.520;2024-03-17T03:24:21;21.90;57.10
75615;DHT22;64199;48.578;-4.520;2024-03-17T03:26:47;21.90;57.20
75615;DHT22;64199;48.578;-4.520;2024-03-17T03:29:14;21.80;57.10
75615;DHT22;64199;48.578;-4.520;2024-03-17T03:31:40;21.80;57.10
75615;DHT22;64199;48.578;-4.520;2024-03-17T03:34:07;21.80;57.10
75615;DHT22;64199;48.578;-4.520;2024-03-17T03:36:34;21.80;57.10
75615;DHT22;64199;48.578;-4.520;2024-03-17T03:39:02;21.80;57.20
75615;DHT22;64199;48.578;-4.520;2024-03-17T03:41:30;21.70;57.10
75615;DHT22;64199;48.578;-4.520;2024-03-17T03:43:57;21.70;57.20
75615;DHT22;64199;48.578;-4.520;2024-03-17T03:46:23;21.70;57.20
75615;DHT22;64199;48.578;-4.520;2024-03-17T03:48:49;21.60;57.20
75615;DHT22;64199;48.578;-4.520;2024-03-17T03:51:14;21.70;57.20
75615;DHT22;64199;48.578;-4.520;2024-03-17T03:53:40;21.60;57.20
75615;DHT22;64199;48.578;-4.520;2024-03-17T03:56:08;21.60;57.20
75615;DHT22;64199;48.578;-4.520;2024-03-17T03:58:37;21.60;57.30
75615;DHT22;64199;48.578;-4.520;2024-03-17T04:01:09;21.60;57.40
75615;DHT22;64199;48.578;-4.520;2024-03-17T04:03:37;21.50;57.40
75615;DHT22;64199;48.578;-4.520;2024-03-17T04:06:04;21.50;57.60
75615;DHT22;64199;48.578;-4.520;2024-03-17T04:08:34;21.50;57.70
75615;DHT22;64199;48.578;-4.520;2024-03-17T04:11:01;21.50;57.80
75615;DHT22;64199;48.578;-4.520;2024-03-17T04:13:28;21.50;58.00
75615;DHT22;64199;48.578;-4.520;2024-03-17T04:15:57;21.50;57.90
75615;DHT22;64199;48.578;-4.520;2024-03-17T04:18:25;21.50;57.90
75615;DHT22;64199;48.578;-4.520;2024-03-17T04:20:55;21.50;57.90
75615;DHT22;64199;48.578;-4.520;2024-03-17T04:23:22;21.40;57.90
75615;DHT22;64199;48.578;-4.520;2024-03-17T04:25:50;21.40;57.90
75615;DHT22;64199;48.578;-4.520;2024-03-17T04:28:16;21.40;57.90
75615;DHT22;64199;48.578;-4.520;2024-03-17T04:30:42;21.30;57.90
75615;DHT22;64199;48.578;-4.520;2024-03-17T04:33:12;21.30;57.90
75615;DHT22;64199;48.578;-4.520;2024-03-17T04:35:39;21.30;57.80
75615;DHT22;64199;48.578;-4.520;2024-03-17T04:38:05;21.30;57.80
75615;DHT22;64199;48.578;-4.520;2024-03-17T04:40:39;21.30;57.80
75615;DHT22;64199;48.578;-4.520;2024-03-17T04:43:06;21.20;57.80
75615;DHT22;64199;48.578;-4.520;2024-03-17T04:45:31;21.20;57.80
75615;DHT22;64199;48.578;-4.520;2024-03-17T04:47:58;21.20;57.90
75615;DHT22;64199;48.578;-4.520;2024-03-17T04:50:23;21.20;57.90
75615;DHT22;64199;48.578;-4.520;2024-03-17T04:52:49;21.20;57.90
75615;DHT22;64199;48.578;-4.520;2024-03-17T04:55:16;21.20;58.00
75615;DHT22;64199;48.578;-4.520;2024-03-17T04:57:44;21.20;58.00
75615;DHT22;64199;48.578;-4.520;2024-03-17T05:00:11;21.10;58.00
75615;DHT22;64199;48.578;-4.520;2024-03-17T05:02:38;21.10;58.10
75615;DHT22;64199;48.578;-4.520;2024-03-17T05:05:05;21.10;58.20
75615;DHT22;64199;48.578;-4.520;2024-03-17T05:07:32;21.10;58.20
75615;DHT22;64199;48.578;-4.520;2024-03-17T05:09:58;21.10;58.20
75615;DHT22;64199;48.578;-4.520;2024-03-17T05:12:23;21.10;58.20
75615;DHT22;64199;48.578;-4.520;2024-03-17T05:14:49;21.10;58.20
75615;DHT22;64199;48.578;-4.520;2024-03-17T05:17:15;21.10;58.20
75615;DHT22;64199;48.578;-4.520;2024-03-17T05:19:41;21.00;58.20
75615;DHT22;64199;48.578;-4.520;2024-03-17T05:22:07;21.00;58.10
75615;DHT22;64199;48.578;-4.520;2024-03-17T05:24:33;21.00;58.20
75615;DHT22;64199;48.578;-4.520;2024-03-17T05:26:59;21.00;58.20
75615;DHT22;64199;48.578;-4.520;2024-03-17T05:29:25;21.00;58.20
75615;DHT22;64199;48.578;-4.520;2024-03-17T05:31:50;21.00;58.20
75615;DHT22;64199;48.578;-4.520;2024-03-17T05:34:16;21.00;58.20
75615;DHT22;64199;48.578;-4.520;2024-03-17T05:36:42;21.00;58.30
75615;DHT22;64199;48.578;-4.520;2024-03-17T05:39:08;21.00;58.30
75615;DHT22;64199;48.578;-4.520;2024-03-17T05:41:34;20.90;58.20
75615;DHT22;64199;48.578;-4.520;2024-03-17T05:44:01;20.90;58.20
75615;DHT22;64199;48.578;-4.520;2024-03-17T05:46:29;20.90;58.20
75615;DHT22;64199;48.578;-4.520;2024-03-17T05:48:55;20.90;58.20
75615;DHT22;64199;48.578;-4.520;2024-03-17T05:51:21;20.90;58.20
75615;DHT22;64199;48.578;-4.520;2024-03-17T05:53:47;20.90;58.30
75615;DHT22;64199;48.578;-4.520;2024-03-17T05:56:14;20.90;58.30
75615;DHT22;64199;48.578;-4.520;2024-03-17T05:58:42;20.80;58.20
75615;DHT22;64199;48.578;-4.520;2024-03-17T06:01:08;20.80;58.20
75615;DHT22;64199;48.578;-4.520;2024-03-17T06:03:35;20.80;58.20
75615;DHT22;64199;48.578;-4.520;2024-03-17T06:06:05;20.80;58.20
75615;DHT22;64199;48.578;-4.520;2024-03-17T06:08:36;20.80;58.20
75615;DHT22;64199;48.578;-4.520;2024-03-17T06:11:02;20.80;58.20
75615;DHT22;64199;48.578;-4.520;2024-03-17T06:13:27;20.80;58.20
75615;DHT22;64199;48.578;-4.520;2024-03-17T06:15:53;20.70;58.10
75615;DHT22;64199;48.578;-4.520;2024-03-17T06:18:19;20.70;58.10
75615;DHT22;64199;48.578;-4.520;2024-03-17T06:20:46;20.70;58.20
75615;DHT22;64199;48.578;-4.520;2024-03-17T06:23:14;20.70;58.20
75615;DHT22;64199;48.578;-4.520;2024-03-17T06:25:45;20.70;58.20
75615;DHT22;64199;48.578;-4.520;2024-03-17T06:28:12;20.60;58.20
75615;DHT22;64199;48.578;-4.520;2024-03-17T06:30:46;20.60;58.30
75615;DHT22;64199;48.578;-4.520;2024-03-17T06:33:17;20.60;58.30
75615;DHT22;64199;48.578;-4.520;2024-03-17T06:35:46;20.60;58.40
75615;DHT22;64199;48.578;-4.520;2024-03-17T06:38:13;20.60;58.50
75615;DHT22;64199;48.578;-4.520;2024-03-17T06:40:41;20.60;58.60
75615;DHT22;64199;48.578;-4.520;2024-03-17T06:43:06;20.60;58.70
75615;DHT22;64199;48.578;-4.520;2024-03-17T06:45:33;20.60;58.80
75615;DHT22;64199;48.578;-4.520;2024-03-17T06:47:59;20.60;58.90
75615;DHT22;64199;48.578;-4.520;2024-03-17T06:50:25;20.50;58.90
75615;DHT22;64199;48.578;-4.520;2024-03-17T06:52:51;20.50;58.90
75615;DHT22;64199;48.578;-4.520;2024-03-17T06:55:18;20.60;58.90
75615;DHT22;64199;48.578;-4.520;2024-03-17T06:57:44;20.60;59.00
75615;DHT22;64199;48.578;-4.520;2024-03-17T07:00:11;20.60;59.10
75615;DHT22;64199;48.578;-4.520;2024-03-17T07:02:40;20.60;59.20
75615;DHT22;64199;48.578;-4.520;2024-03-17T07:05:07;20.60;59.30
75615;DHT22;64199;48.578;-4.520;2024-03-17T07:07:33;20.60;59.40
75615;DHT22;64199;48.578;-4.520;2024-03-17T07:09:59;20.70;59.60
75615;DHT22;64199;48.578;-4.520;2024-03-17T07:12:30;20.70;59.70
75615;DHT22;64199;48.578;-4.520;2024-03-17T07:14:56;20.70;59.80
75615;DHT22;64199;48.578;-4.520;2024-03-17T07:17:22;20.70;59.90
75615;DHT22;64199;48.578;-4.520;2024-03-17T07:19:48;20.80;60.00
75615;DHT22;64199;48.578;-4.520;2024-03-17T07:22:15;20.80;59.90
75615;DHT22;64199;48.578;-4.520;2024-03-17T07:24:41;20.80;60.00
75615;DHT22;64199;48.578;-4.520;2024-03-17T07:27:10;20.90;60.00
75615;DHT22;64199;48.578;-4.520;2024-03-17T07:29:39;20.90;60.00
75615;DHT22;64199;48.578;-4.520;2024-03-17T07:32:05;20.90;60.00
75615;DHT22;64199;48.578;-4.520;2024-03-17T07:34:32;21.00;60.10
75615;DHT22;64199;48.578;-4.520;2024-03-17T07:36:58;21.00;60.20
75615;DHT22;64199;48.578;-4.520;2024-03-17T07:39:29;21.10;60.20
75615;DHT22;64199;48.578;-4.520;2024-03-17T07:42:01;21.10;60.40
75615;DHT22;64199;48.578;-4.520;2024-03-17T07:44:28;21.10;60.40
75615;DHT22;64199;48.578;-4.520;2024-03-17T07:46:59;21.10;60.30
75615;DHT22;64199;48.578;-4.520;2024-03-17T07:49:25;21.20;60.30
75615;DHT22;64199;48.578;-4.520;2024-03-17T07:51:50;21.20;60.20
75615;DHT22;64199;48.578;-4.520;2024-03-17T07:54:16;21.20;60.20
75615;DHT22;64199;48.578;-4.520;2024-03-17T07:56:44;21.30;60.30
75615;DHT22;64199;48.578;-4.520;2024-03-17T07:59:10;21.30;60.40
75615;DHT22;64199;48.578;-4.520;2024-03-17T08:01:42;21.40;60.40
75615;DHT22;64199;48.578;-4.520;2024-03-17T08:04:08;21.40;60.40
75615;DHT22;64199;48.578;-4.520;2024-03-17T08:06:34;21.40;60.40
75615;DHT22;64199;48.578;-4.520;2024-03-17T08:08:59;21.40;60.40
75615;DHT22;64199;48.578;-4.520;2024-03-17T08:11:25;21.50;60.30
75615;DHT22;64199;48.578;-4.520;2024-03-17T08:13:51;21.50;60.30
75615;DHT22;64199;48.578;-4.520;2024-03-17T08:16:18;21.50;60.30
75615;DHT22;64199;48.578;-4.520;2024-03-17T08:18:44;21.60;60.30
75615;DHT22;64199;48.578;-4.520;2024-03-17T08:21:10;21.60;60.20
75615;DHT22;64199;48.578;-4.520;2024-03-17T08:23:36;21.60;60.20
75615;DHT22;64199;48.578;-4.520;2024-03-17T08:26:07;21.60;60.10
75615;DHT22;64199;48.578;-4.520;2024-03-17T08:28:34;21.70;60.10
75615;DHT22;64199;48.578;-4.520;2024-03-17T08:31:01;21.70;60.10
75615;DHT22;64199;48.578;-4.520;2024-03-17T08:33:28;21.70;60.10
75615;DHT22;64199;48.578;-4.520;2024-03-17T08:35:58;21.80;60.00
75615;DHT22;64199;48.578;-4.520;2024-03-17T08:38:26;21.80;60.00
75615;DHT22;64199;48.578;-4.520;2024-03-17T08:40:53;21.80;60.00
75615;DHT22;64199;48.578;-4.520;2024-03-17T08:43:20;21.80;60.00
75615;DHT22;64199;48.578;-4.520;2024-03-17T08:45:57;21.90;60.00
75615;DHT22;64199;48.578;-4.520;2024-03-17T08:48:24;21.90;60.00
75615;DHT22;64199;48.578;-4.520;2024-03-17T08:50:53;21.90;59.90
75615;DHT22;64199;48.578;-4.520;2024-03-17T08:53:20;21.90;59.90
75615;DHT22;64199;48.578;-4.520;2024-03-17T08:55:46;21.90;59.90
75615;DHT22;64199;48.578;-4.520;2024-03-17T08:58:12;22.00;59.90
75615;DHT22;64199;48.578;-4.520;2024-03-17T09:00:38;22.00;59.90
75615;DHT22;64199;48.578;-4.520;2024-03-17T09:03:06;22.00;60.60
75615;DHT22;64199;48.578;-4.520;2024-03-17T09:05:36;22.10;59.80
75615;DHT22;64199;48.578;-4.520;2024-03-17T09:08:02;22.10;59.80
75615;DHT22;64199;48.578;-4.520;2024-03-17T09:10:28;22.20;59.70
75615;DHT22;64199;48.578;-4.520;2024-03-17T09:12:54;22.20;59.70
75615;DHT22;64199;48.578;-4.520;2024-03-17T09:15:20;22.20;59.60
75615;DHT22;64199;48.578;-4.520;2024-03-17T09:17:46;22.20;59.50
75615;DHT22;64199;48.578;-4.520;2024-03-17T09:20:13;22.30;59.60
75615;DHT22;64199;48.578;-4.520;2024-03-17T09:22:41;22.30;60.20
75615;DHT22;64199;48.578;-4.520;2024-03-17T09:25:07;22.30;59.50
75615;DHT22;64199;48.578;-4.520;2024-03-17T09:27:34;22.40;59.40
75615;DHT22;64199;48.578;-4.520;2024-03-17T09:30:03;22.40;59.40
75615;DHT22;64199;48.578;-4.520;2024-03-17T09:32:32;22.40;59.40
75615;DHT22;64199;48.578;-4.520;2024-03-17T09:34:58;22.40;59.30
75615;DHT22;64199;48.578;-4.520;2024-03-17T09:37:24;22.50;59.30
75615;DHT22;64199;48.578;-4.520;2024-03-17T09:39:50;22.50;59.20
75615;DHT22;64199;48.578;-4.520;2024-03-17T09:42:19;22.50;59.10
75615;DHT22;64199;48.578;-4.520;2024-03-17T09:44:48;22.50;59.00
75615;DHT22;64199;48.578;-4.520;2024-03-17T09:47:24;22.50;59.00
75615;DHT22;64199;48.578;-4.520;2024-03-17T09:49:52;22.50;58.90
75615;DHT22;64199;48.578;-4.520;2024-03-17T09:52:20;22.40;58.80
75615;DHT22;64199;48.578;-4.520;2024-03-17T09:55:15;22.50;58.80
75615;DHT22;64199;48.578;-4.520;2024-03-17T09:57:40;22.40;58.70
75615;DHT22;64199;48.578;-4.520;2024-03-17T10:00:13;22.40;58.70
75615;DHT22;64199;48.578;-4.520;2024-03-17T10:02:44;22.40;58.70
75615;DHT22;64199;48.578;-4.520;2024-03-17T10:05:22;22.40;58.70
75615;DHT22;64199;48.578;-4.520;2024-03-17T10:07:49;22.40;58.70
75615;DHT22;64199;48.578;-4.520;2024-03-17T10:10:16;22.30;58.60
75615;DHT22;64199;48.578;-4.520;2024-03-17T10:12:42;22.30;58.70
75615;DHT22;64199;48.578;-4.520;2024-03-17T10:15:11;22.30;58.80
75615;DHT22;64199;48.578;-4.520;2024-03-17T10:17:38;22.30;58.70
75615;DHT22;64199;48.578;-4.520;2024-03-17T10:20:23;22.20;58.50
75615;DHT22;64199;48.578;-4.520;2024-03-17T10:22:58;22.20;58.50
75615;DHT22;64199;48.578;-4.520;2024-03-17T10:25:28;22.10;58.30
75615;DHT22;64199;48.578;-4.520;2024-03-17T10:27:57;22.10;58.30
75615;DHT22;64199;48.578;-4.520;2024-03-17T10:30:24;22.10;58.80
75615;DHT22;64199;48.578;-4.520;2024-03-17T10:32:58;22.10;58.20
75615;DHT22;64199;48.578;-4.520;2024-03-17T10:37:59;22.00;58.00
75615;DHT22;64199;48.578;-4.520;2024-03-17T10:40:26;22.00;58.00
75615;DHT22;64199;48.578;-4.520;2024-03-17T10:42:53;22.00;58.00
75615;DHT22;64199;48.578;-4.520;2024-03-17T10:45:19;21.90;57.90
75615;DHT22;64199;48.578;-4.520;2024-03-17T10:47:48;21.90;57.90
75615;DHT22;64199;48.578;-4.520;2024-03-17T10:50:24;21.90;57.80
75615;DHT22;64199;48.578;-4.520;2024-03-17T10:52:50;21.90;57.80
75615;DHT22;64199;48.578;-4.520;2024-03-17T10:55:25;21.80;57.70
75615;DHT22;64199;48.578;-4.520;2024-03-17T10:57:52;21.80;57.70
75615;DHT22;64199;48.578;-4.520;2024-03-17T11:00:22;21.80;57.80
75615;DHT22;64199;48.578;-4.520;2024-03-17T11:02:50;21.80;57.70
75615;DHT22;64199;48.578;-4.520;2024-03-17T11:05:26;21.70;57.70
75615;DHT22;64199;48.578;-4.520;2024-03-17T11:07:57;21.70;57.70
75615;DHT22;64199;48.578;-4.520;2024-03-17T11:10:36;21.70;57.70
75615;DHT22;64199;48.578;-4.520;2024-03-17T11:13:03;21.70;57.70
75615;DHT22;64199;48.578;-4.520;2024-03-17T11:20:38;21.60;57.60
75615;DHT22;64199;48.578;-4.520;2024-03-17T11:23:05;21.60;57.60
75615;DHT22;64199;48.578;-4.520;2024-03-17T11:25:38;21.60;57.60
75615;DHT22;64199;48.578;-4.520;2024-03-17T11:28:08;21.50;57.60
75615;DHT22;64199;48.578;-4.520;2024-03-17T11:33:48;21.50;57.60
75615;DHT22;64199;48.578;-4.520;2024-03-17T11:41:37;21.40;57.70
75615;DHT22;64199;48.578;-4.520;2024-03-17T11:47:05;21.40;57.60
75615;DHT22;64199;48.578;-4.520;2024-03-17T11:49:34;21.40;57.60
75615;DHT22;64199;48.578;-4.520;2024-03-17T11:52:13;21.30;57.50
75615;DHT22;64199;48.578;-4.520;2024-03-17T11:54:44;21.30;57.60
75615;DHT22;64199;48.578;-4.520;2024-03-17T11:57:17;21.30;57.50
75615;DHT22;64199;48.578;-4.520;2024-03-17T11:59:48;21.40;57.60
75615;DHT22;64199;48.578;-4.520;2024-03-17T12:02:25;21.40;57.60
75615;DHT22;64199;48.578;-4.520;2024-03-17T12:04:57;21.30;57.70
75615;DHT22;64199;48.578;-4.520;2024-03-17T12:07:24;21.40;57.80
75615;DHT22;64199;48.578;-4.520;2024-03-17T12:09:51;21.30;57.70
75615;DHT22;64199;48.578;-4.520;2024-03-17T12:12:20;21.30;57.80
75615;DHT22;64199;48.578;-4.520;2024-03-17T12:14:46;21.40;57.90
75615;DHT22;64199;48.578;-4.520;2024-03-17T12:17:15;21.30;57.80
75615;DHT22;64199;48.578;-4.520;2024-03-17T12:19:45;21.30;58.00
75615;DHT22;64199;48.578;-4.520;2024-03-17T12:22:17;21.30;58.00
75615;DHT22;64199;48.578;-4.520;2024-03-17T12:24:44;21.30;58.10
75615;DHT22;64199;48.578;-4.520;2024-03-17T12:27:20;21.20;58.10
75615;DHT22;64199;48.578;-4.520;2024-03-17T12:29:48;21.30;58.20
75615;DHT22;64199;48.578;-4.520;2024-03-17T12:32:25;21.30;58.20
75615;DHT22;64199;48.578;-4.520;2024-03-17T12:34:52;21.20;58.20
75615;DHT22;64199;48.578;-4.520;2024-03-17T12:37:23;21.30;58.30
75615;DHT22;64199;48.578;-4.520;2024-03-17T12:40:00;21.20;58.30
75615;DHT22;64199;48.578;-4.520;2024-03-17T12:42:27;21.30;58.30
75615;DHT22;64199;48.578;-4.520;2024-03-17T12:44:54;21.30;58.40
75615;DHT22;64199;48.578;-4.520;2024-03-17T12:47:24;21.30;58.40
75615;DHT22;64199;48.578;-4.520;2024-03-17T12:52:22;21.20;58.30
75615;DHT22;64199;48.578;-4.520;2024-03-17T12:55:08;21.20;58.20
75615;DHT22;64199;48.578;-4.520;2024-03-17T12:58:05;21.20;58.30
75615;DHT22;64199;48.578;-4.520;2024-03-17T13:01:00;21.20;58.30
75615;DHT22;64199;48.578;-4.520;2024-03-17T13:03:28;21.20;58.40
75615;DHT22;64199;48.578;-4.520;2024-03-17T13:05:54;21.20;58.50
75615;DHT22;64199;48.578;-4.520;2024-03-17T13:08:20;21.20;59.10
75615;DHT22;64199;48.578;-4.520;2024-03-17T13:10:46;21.20;58.50
75615;DHT22;64199;48.578;-4.520;2024-03-17T13:13:13;21.20;58.60
75615;DHT22;64199;48.578;-4.520;2024-03-17T13:15:43;21.20;58.60
75615;DHT22;64199;48.578;-4.520;2024-03-17T13:18:09;21.20;58.60
75615;DHT22;64199;48.578;-4.520;2024-03-17T13:20:37;21.20;58.60
75615;DHT22;64199;48.578;-4.520;2024-03-17T13:23:03;21.20;58.70
75615;DHT22;64199;48.578;-4.520;2024-03-17T13:25:30;21.10;58.60
75615;DHT22;64199;48.578;-4.520;2024-03-17T13:28:00;21.10;58.60
75615;DHT22;64199;48.578;-4.520;2024-03-17T13:30:27;21.20;58.70
75615;DHT22;64199;48.578;-4.520;2024-03-17T13:32:54;21.20;58.70
75615;DHT22;64199;48.578;-4.520;2024-03-17T13:35:27;21.20;58.70
75615;DHT22;64199;48.578;-4.520;2024-03-17T13:37:55;21.10;58.60
75615;DHT22;64199;48.578;-4.520;2024-03-17T13:40:22;21.10;58.70
75615;DHT22;64199;48.578;-4.520;2024-03-17T13:42:50;21.10;58.70
75615;DHT22;64199;48.578;-4.520;2024-03-17T13:45:17;21.10;58.70
75615;DHT22;64199;48.578;-4.520;2024-03-17T13:47:53;21.20;58.70
75615;DHT22;64199;48.578;-4.520;2024-03-17T13:50:20;21.10;58.70
75615;DHT22;64199;48.578;-4.520;2024-03-17T13:52:46;21.10;58.60
75615;DHT22;64199;48.578;-4.520;2024-03-17T13:55:18;21.10;58.60
75615;DHT22;64199;48.578;-4.520;2024-03-17T13:57:45;21.10;58.60
75615;DHT22;64199;48.578;-4.520;2024-03-17T14:00:14;21.10;58.60
75615;DHT22;64199;48.578;-4.520;2024-03-17T14:02:50;21.10;58.60
75615;DHT22;64199;48.578;-4.520;2024-03-17T14:05:22;21.10;58.60
75615;DHT22;64199;48.578;-4.520;2024-03-17T14:07:49;21.10;58.60
75615;DHT22;64199;48.578;-4.520;2024-03-17T14:10:18;21.00;58.50
75615;DHT22;64199;48.578;-4.520;2024-03-17T14:12:45;21.00;58.60
75615;DHT22;64199;48.578;-4.520;2024-03-17T14:15:13;21.10;58.60
75615;DHT22;64199;48.578;-4.520;2024-03-17T14:17:46;21.00;58.60
75615;DHT22;64199;48.578;-4.520;2024-03-17T14:20:14;21.00;58.60
75615;DHT22;64199;48.578;-4.520;2024-03-17T14:22:41;21.00;58.60
75615;DHT22;64199;48.578;-4.520;2024-03-17T14:25:16;21.00;58.70
75615;DHT22;64199;48.578;-4.520;2024-03-17T14:27:43;21.00;58.70
75615;DHT22;64199;48.578;-4.520;2024-03-17T14:30:10;21.00;58.70
75615;DHT22;64199;48.578;-4.520;2024-03-17T14:32:39;21.00;58.70
75615;DHT22;64199;48.578;-4.520;2024-03-17T14:35:04;21.00;58.70
75615;DHT22;64199;48.578;-4.520;2024-03-17T14:37:31;21.00;58.70
75615;DHT22;64199;48.578;-4.520;2024-03-17T14:39:58;21.00;58.70
75615;DHT22;64199;48.578;-4.520;2024-03-17T14:42:25;21.00;58.80
75615;DHT22;64199;48.578;-4.520;2024-03-17T14:44:51;21.00;58.90
75615;DHT22;64199;48.578;-4.520;2024-03-17T14:47:16;21.00;59.00
75615;DHT22;64199;48.578;-4.520;2024-03-17T14:49:42;21.00;59.00
75615;DHT22;64199;48.578;-4.520;2024-03-17T14:52:09;21.00;59.00
75615;DHT22;64199;48.578;-4.520;2024-03-17T14:54:35;21.00;59.00
75615;DHT22;64199;48.578;-4.520;2024-03-17T14:57:01;21.00;59.10
75615;DHT22;64199;48.578;-4.520;2024-03-17T14:59:26;21.00;59.00
75615;DHT22;64199;48.578;-4.520;2024-03-17T15:01:52;21.00;59.10
75615;DHT22;64199;48.578;-4.520;2024-03-17T15:04:18;21.00;59.10
75615;DHT22;64199;48.578;-4.520;2024-03-17T15:06:44;21.00;59.20
75615;DHT22;64199;48.578;-4.520;2024-03-17T15:09:10;21.00;59.20
75615;DHT22;64199;48.578;-4.520;2024-03-17T15:11:38;21.00;59.30
75615;DHT22;64199;48.578;-4.520;2024-03-17T15:14:03;21.00;59.20
75615;DHT22;64199;48.578;-4.520;2024-03-17T15:16:34;21.00;59.30
75615;DHT22;64199;48.578;-4.520;2024-03-17T15:18:59;21.00;59.30
75615;DHT22;64199;48.578;-4.520;2024-03-17T15:21:25;21.00;59.30
75615;DHT22;64199;48.578;-4.520;2024-03-17T15:23:52;21.00;59.40
75615;DHT22;64199;48.578;-4.520;2024-03-17T15:26:18;20.90;59.40
75615;DHT22;64199;48.578;-4.520;2024-03-17T15:28:45;21.00;59.40
75615;DHT22;64199;48.578;-4.520;2024-03-17T15:31:11;21.00;59.40
75615;DHT22;64199;48.578;-4.520;2024-03-17T15:33:38;21.00;59.40
75615;DHT22;64199;48.578;-4.520;2024-03-17T15:36:07;21.00;59.40
75615;DHT22;64199;48.578;-4.520;2024-03-17T15:38:34;21.00;59.50
75615;DHT22;64199;48.578;-4.520;2024-03-17T15:41:08;21.00;59.50